Time;durP1;ratioP1;P1;durP2;ratioP2;P2;SDS_P1;SDS_P2;PMS_P1;PMS_P2;Temp;Humidity;BMP_temperature;BMP_pressure;BME280_temperature;BME280_humidity;BME280_pressure;Samples;Min_cycle;Max_cycle;Signal;HPM_P1;HPM_P2
2021/06/15 00:01:04;;;;;;;6.83;3.43;;;;;;;17.96;63.55;101074.97;4995564;28;20602;-67
2021/06/15 00:03:29;;;;;;;6.43;3.23;;;;;;;18.06;63.11;101069.69;4993780;28;20190;-67
2021/06/15 00:05:54;;;;;;;12.20;3.70;;;;;;;18.07;63.04;101063.28;4994233;28;20181;-67
2021/06/15 00:08:20;;;;;;;6.47;3.30;;;;;;;18.02;63.22;101068.22;4994312;28;20232;-68
2021/06/15 00:10:45;;;;;;;5.77;3.47;;;;;;;17.92;63.98;101076.19;4993692;28;20220;-67
2021/06/15 00:13:11;;;;;;;4.63;3.47;;;;;;;17.84;64.30;101072.38;4976124;28;20511;-67
2021/06/15 00:15:37;;;;;;;6.47;3.63;;;;;;;17.88;64.24;101071.16;4993641;28;20538;-68
2021/06/15 00:18:03;;;;;;;6.50;3.63;;;;;;;17.85;64.71;101076.81;4976489;28;20197;-67
2021/06/15 00:20:29;;;;;;;5.50;3.33;;;;;;;17.92;64.44;101072.63;4975977;28;20562;-67
2021/06/15 00:22:54;;;;;;;12.63;3.80;;;;;;;17.82;64.84;101083.28;4976592;28;20286;-67
2021/06/15 00:25:19;;;;;;;4.47;3.27;;;;;;;17.72;65.08;101076.91;4979765;28;20197;-67
2021/06/15 00:27:46;;;;;;;6.97;3.33;;;;;;;17.59;65.98;101074.28;4996791;28;20205;-67
2021/06/15 00:30:13;;;;;;;11.50;3.70;;;;;;;17.47;66.65;101081.50;4979763;28;20669;-67
2021/06/15 00:32:39;;;;;;;7.57;3.90;;;;;;;17.48;66.73;101069.75;4996751;28;20166;-67
2021/06/15 00:35:04;;;;;;;5.40;3.70;;;;;;;17.47;66.60;101077.94;4979538;28;20205;-67
2021/06/15 00:37:30;;;;;;;7.53;4.13;;;;;;;17.44;67.06;101075.47;4996977;28;20188;-67
2021/06/15 00:39:55;;;;;;;5.37;3.67;;;;;;;17.40;67.24;101066.75;5012780;28;20205;-66
2021/06/15 00:42:22;;;;;;;7.30;4.10;;;;;;;17.43;67.05;101073.75;4997117;28;20220;-67
2021/06/15 00:44:48;;;;;;;6.30;3.80;;;;;;;17.44;66.94;101076.31;4996199;28;20542;-67
2021/06/15 00:47:13;;;;;;;6.33;4.30;;;;;;;17.47;66.96;101075.25;4983865;28;20181;-69
2021/06/15 00:49:39;;;;;;;5.57;3.67;;;;;;;17.38;66.99;101075.94;4979215;28;20196;-69
2021/06/15 00:52:05;;;;;;;10.50;3.97;;;;;;;17.27;67.57;101081.31;4979334;28;20177;-67
2021/06/15 00:54:30;;;;;;;11.33;4.87;;;;;;;17.23;67.61;101080.69;4996374;28;20224;-68
2021/06/15 00:56:55;;;;;;;6.90;4.00;;;;;;;17.17;68.05;101083.88;4979264;28;20586;-67
2021/06/15 00:59:22;;;;;;;8.30;4.27;;;;;;;17.25;67.86;101078.75;4996096;28;20217;-67
2021/06/15 01:01:47;;;;;;;8.73;4.87;;;;;;;17.30;67.83;101078.38;4978799;28;20674;-67
2021/06/15 01:04:14;;;;;;;9.30;5.10;;;;;;;17.39;67.51;101083.06;4996208;28;20184;-68
2021/06/15 01:06:54;;;;;;;8.47;4.60;;;;;;;17.36;67.61;101088.69;4978558;28;20178;-68
2021/06/15 01:09:28;;;;;;;9.80;4.20;;;;;;;17.13;68.23;101087.78;4978496;28;20203;-68
2021/06/15 01:12:03;;;;;;;6.40;3.80;;;;;;;17.05;68.97;101080.25;4978543;28;20157;-68
2021/06/15 01:15:00;;;;;;;6.20;3.93;;;;;;;16.93;69.37;101081.19;4978483;28;20198;-68
2021/06/15 01:17:31;;;;;;;8.40;4.83;;;;;;;16.97;68.69;101088.06;4978543;28;20177;-68
2021/06/15 01:20:05;;;;;;;7.93;4.90;;;;;;;17.06;68.71;101084.66;4995998;28;20235;-67
2021/06/15 01:22:30;;;;;;;9.77;5.07;;;;;;;17.09;68.10;101083.56;4996027;28;20189;-67
2021/06/15 01:25:04;;;;;;;9.67;5.47;;;;;;;17.09;68.11;101087.13;4996044;28;20592;-68
2021/06/15 01:27:47;;;;;;;14.60;5.10;;;;;;;17.03;68.45;101082.19;4995782;28;20638;-68
2021/06/15 01:30:14;;;;;;;10.77;5.03;;;;;;;16.97;68.90;101084.50;4995677;28;20197;-68
2021/06/15 01:32:44;;;;;;;11.33;5.63;;;;;;;16.98;68.52;101088.94;4978440;28;20177;-68
2021/06/15 01:35:10;;;;;;;12.00;5.40;;;;;;;16.96;68.69;101088.19;4978326;28;20268;-68
2021/06/15 01:37:43;;;;;;;9.30;5.87;;;;;;;16.95;68.91;101076.53;4978150;28;20186;-68
2021/06/15 01:40:14;;;;;;;7.97;5.53;;;;;;;17.02;68.45;101076.94;4978079;28;20677;-68
2021/06/15 01:42:51;;;;;;;11.47;5.47;;;;;;;17.04;68.45;101085.75;4995428;28;20201;-68
2021/06/15 01:45:24;;;;;;;9.73;5.90;;;;;;;17.00;68.42;101087.84;4995713;28;20180;-68
2021/06/15 01:47:57;;;;;;;8.97;5.43;;;;;;;16.86;69.04;101094.28;4978293;28;20209;-68
2021/06/15 01:50:23;;;;;;;9.40;5.43;;;;;;;16.80;69.43;101099.28;4978208;28;20666;-68
2021/06/15 01:52:50;;;;;;;9.90;4.30;;;;;;;16.64;70.15;101094.09;4977960;28;20180;-68
2021/06/15 01:55:16;;;;;;;6.80;4.80;;;;;;;16.46;71.17;101082.88;4977746;28;20240;-68
2021/06/15 01:57:43;;;;;;;9.50;4.43;;;;;;;16.35;72.13;101093.53;4978383;28;20189;-68
2021/06/15 02:00:10;;;;;;;9.87;5.43;;;;;;;16.36;72.13;101098.00;5009741;23;20263;-68
2021/06/15 02:02:37;;;;;;;9.07;5.77;;;;;;;16.36;71.99;101097.13;4997615;28;20201;-68
2021/06/15 02:05:07;;;;;;;7.47;4.57;;;;;;;16.27;72.84;101104.88;4980739;28;20568;-68
2021/06/15 02:07:33;;;;;;;7.77;4.60;;;;;;;16.21;72.91;101102.63;4997397;28;20522;-68
2021/06/15 02:10:11;;;;;;;7.30;4.57;;;;;;;16.15;73.25;101099.53;4996937;28;20220;-68
2021/06/15 02:12:40;;;;;;;9.97;5.20;;;;;;;16.12;73.71;101103.31;4997076;28;20164;-68
2021/06/15 02:15:10;;;;;;;7.73;4.20;;;;;;;16.13;74.10;101098.78;4997302;28;20185;-68
2021/06/15 02:17:39;;;;;;;8.87;5.30;;;;;;;16.15;73.88;101104.91;4997390;28;20256;-68
2021/06/15 02:20:06;;;;;;;9.67;5.17;;;;;;;16.17;73.98;101106.53;4997488;28;20197;-68
2021/06/15 02:22:32;;;;;;;7.83;5.23;;;;;;;16.18;74.85;101094.78;4996952;28;20224;-68
2021/06/15 02:25:00;;;;;;;7.60;4.40;;;;;;;16.19;74.52;101096.50;4996701;28;20185;-68
2021/06/15 02:27:26;;;;;;;10.37;5.40;;;;;;;16.22;74.44;101103.50;4980315;28;20173;-68
2021/06/15 02:29:56;;;;;;;9.73;6.83;;;;;;;16.23;74.21;101105.22;4996553;28;20197;-68
2021/06/15 02:32:24;;;;;;;24.00;7.87;;;;;;;16.25;74.07;101101.44;4996732;28;20594;-68
2021/06/15 02:34:50;;;;;;;11.03;6.77;;;;;;;16.30;73.96;101106.50;4996712;28;20203;-68
2021/06/15 02:37:22;;;;;;;10.87;7.13;;;;;;;16.24;74.37;101105.09;5014029;28;20177;-68
2021/06/15 02:39:48;;;;;;;16.40;8.87;;;;;;;16.31;73.92;101102.81;5014702;28;20192;-68
2021/06/15 02:42:14;;;;;;;14.73;7.70;;;;;;;16.30;73.77;101109.19;4996607;28;20199;-68
2021/06/15 02:44:42;;;;;;;12.60;8.40;;;;;;;16.28;74.16;101105.75;4996314;28;20177;-68
2021/06/15 02:47:08;;;;;;;15.27;7.77;;;;;;;16.24;73.96;101106.94;4979461;28;20231;-68
2021/06/15 02:49:38;;;;;;;13.97;8.13;;;;;;;16.17;74.48;101102.97;4996393;28;20193;-68
2021/06/15 02:52:16;;;;;;;14.77;8.83;;;;;;;16.17;74.75;101094.91;5014386;28;20200;-66
2021/06/15 02:54:57;;;;;;;15.33;9.20;;;;;;;16.26;74.78;101108.53;5014688;28;20180;-66
2021/06/15 02:57:25;;;;;;;19.93;9.07;;;;;;;16.19;74.87;101109.97;4996204;28;20243;-65
2021/06/15 02:59:50;;;;;;;14.13;8.93;;;;;;;16.16;74.93;101112.88;5013323;28;20240;-68
2021/06/15 03:02:15;;;;;;;16.07;9.47;;;;;;;16.21;75.05;101123.31;4995921;28;20219;-67
2021/06/15 03:04:45;;;;;;;16.87;8.50;;;;;;;16.17;74.99;101119.13;5013402;28;20576;-67
2021/06/15 03:07:10;;;;;;;13.40;8.73;;;;;;;16.18;74.97;101119.03;5013916;28;20173;-67
2021/06/15 03:09:36;;;;;;;13.57;8.63;;;;;;;16.10;75.72;101126.78;4995713;28;20207;-67
2021/06/15 03:12:15;;;;;;;16.87;8.47;;;;;;;16.09;75.67;101127.75;4995716;28;20205;-67
2021/06/15 03:14:43;;;;;;;15.17;9.00;;;;;;;16.03;75.95;101127.34;4979457;28;20169;-67
2021/06/15 03:17:09;;;;;;;14.67;8.50;;;;;;;15.89;77.05;101134.53;4995632;28;20541;-67
2021/06/15 03:19:40;;;;;;;17.20;9.90;;;;;;;16.00;76.78;101132.94;4995839;28;20259;-67
2021/06/15 03:22:20;;;;;;;17.80;10.33;;;;;;;15.92;77.17;101142.41;4995877;28;20211;-67
2021/06/15 03:24:51;;;;;;;16.77;10.20;;;;;;;15.78;77.97;101137.13;4995561;28;20161;-67
2021/06/15 03:27:20;;;;;;;16.63;10.37;;;;;;;15.79;78.29;101144.25;5013385;28;20519;-67
2021/06/15 03:29:46;;;;;;;20.47;10.57;;;;;;;15.86;78.13;101141.97;4979403;28;20215;-67
2021/06/15 03:32:14;;;;;;;12.67;9.00;;;;;;;15.91;77.78;101148.75;4995623;28;20288;-67
2021/06/15 03:34:42;;;;;;;18.13;10.03;;;;;;;15.96;78.06;101148.41;4995635;28;20211;-67
2021/06/15 03:37:10;;;;;;;17.17;9.73;;;;;;;16.05;77.50;101158.56;5013526;28;20177;-67
2021/06/15 03:39:36;;;;;;;16.37;9.87;;;;;;;15.94;77.85;101167.38;4979314;28;20673;-67
2021/06/15 03:42:02;;;;;;;18.83;9.40;;;;;;;16.00;77.99;101173.31;4995630;28;20263;-67
2021/06/15 03:44:27;;;;;;;14.87;9.07;;;;;;;15.92;77.98;101187.28;5013332;28;20180;-67
2021/06/15 03:46:55;;;;;;;15.53;8.67;;;;;;;15.97;77.91;101178.91;4995872;28;20588;-67
2021/06/15 03:49:22;;;;;;;12.97;9.17;;;;;;;15.97;77.96;101174.38;4996041;28;20219;-67
2021/06/15 03:51:50;;;;;;;16.93;9.60;;;;;;;15.95;78.06;101182.56;5013404;28;20538;-67
2021/06/15 03:54:16;;;;;;;18.30;10.37;;;;;;;16.04;78.29;101182.91;4998437;28;20173;-66
2021/06/15 03:56:46;;;;;;;14.43;10.03;;;;;;;16.08;78.30;101173.66;5003755;28;20196;-67
2021/06/15 03:59:15;;;;;;;17.60;11.03;;;;;;;16.12;78.58;101175.16;5005918;28;20268;-67
2021/06/15 04:01:42;;;;;;;20.13;11.10;;;;;;;16.17;78.08;101175.69;5008814;28;20257;-67
2021/06/15 04:04:10;;;;;;;16.70;10.67;;;;;;;16.21;78.26;101178.03;5004678;28;20205;-67
2021/06/15 04:06:37;;;;;;;16.03;11.07;;;;;;;16.19;78.42;101181.81;4999955;28;20203;-67
2021/06/15 04:09:05;;;;;;;20.63;10.50;;;;;;;16.18;78.53;101186.34;5000004;28;20220;-68
2021/06/15 04:11:32;;;;;;;18.17;11.50;;;;;;;16.16;79.01;101185.59;4999256;28;20224;-67
2021/06/15 04:13:59;;;;;;;15.73;10.57;;;;;;;16.12;78.89;101188.59;5016573;28;20205;-67
2021/06/15 04:16:24;;;;;;;19.57;11.37;;;;;;;16.03;80.15;101183.88;4999091;28;20259;-67
2021/06/15 04:18:50;;;;;;;14.40;10.63;;;;;;;16.23;79.40;101186.88;5016884;28;20287;-68
2021/06/15 04:21:17;;;;;;;17.27;10.83;;;;;;;16.24;79.25;101190.44;4999440;28;20255;-67
2021/06/15 04:23:48;;;;;;;25.10;12.90;;;;;;;16.27;79.41;101183.00;5016720;28;20185;-67
2021/06/15 04:26:14;;;;;;;22.00;11.40;;;;;;;16.25;79.05;101194.84;4998898;28;20678;-68
2021/06/15 04:28:39;;;;;;;20.90;11.93;;;;;;;16.26;79.45;101197.44;4999571;28;20177;-68
2021/06/15 04:31:05;;;;;;;18.67;12.17;;;;;;;16.31;79.44;101205.19;5016605;28;20530;-66
2021/06/15 04:33:32;;;;;;;17.80;11.87;;;;;;;16.36;79.59;101199.50;4999169;28;20681;-68
2021/06/15 04:35:59;;;;;;;17.87;11.27;;;;;;;16.40;79.20;101203.69;5016413;28;20173;-67
2021/06/15 04:38:39;;;;;;;20.43;11.77;;;;;;;16.51;79.24;101204.63;4998901;28;20185;-67
2021/06/15 04:41:13;;;;;;;16.63;11.03;;;;;;;16.56;78.78;101205.16;4998781;28;20201;-67
2021/06/15 04:44:00;;;;;;;16.13;10.97;;;;;;;16.63;78.30;101204.72;4999442;28;20185;-67
2021/06/15 04:46:28;;;;;;;20.73;11.30;;;;;;;16.69;78.55;101204.28;4998676;28;20185;-67
2021/06/15 04:49:03;;;;;;;17.23;10.57;;;;;;;16.78;78.40;101200.94;4998728;28;20674;-67
2021/06/15 04:51:30;;;;;;;19.77;11.93;;;;;;;16.97;77.70;101193.22;4998535;28;20223;-66
2021/06/15 04:53:58;;;;;;;20.87;12.17;;;;;;;16.97;77.53;101197.75;4998374;28;20715;-67
2021/06/15 04:56:24;;;;;;;21.60;12.27;;;;;;;16.92;78.10;101205.31;4982442;28;20181;-68
2021/06/15 04:58:49;;;;;;;23.53;12.53;;;;;;;16.99;77.92;101204.75;4998301;28;20180;-68
2021/06/15 05:01:15;;;;;;;19.60;11.27;;;;;;;16.97;78.64;101222.88;5015730;28;20204;-68
2021/06/15 05:03:42;;;;;;;19.93;11.93;;;;;;;16.97;78.31;101220.19;4998536;28;20235;-68
2021/06/15 05:06:07;;;;;;;19.80;12.43;;;;;;;17.04;78.31;101226.84;4998529;28;20653;-69
2021/06/15 05:08:38;;;;;;;21.63;12.37;;;;;;;16.98;78.88;101227.28;4998049;28;20177;-68
2021/06/15 05:11:05;;;;;;;21.90;12.60;;;;;;;16.96;78.71;101228.38;4997837;28;20732;-67
2021/06/15 05:13:32;;;;;;;22.13;12.30;;;;;;;16.91;79.30;101220.63;5015607;28;20204;-68
2021/06/15 05:15:59;;;;;;;20.97;12.27;;;;;;;17.11;78.27;101224.56;5015817;28;20216;-64
2021/06/15 05:18:24;;;;;;;21.30;11.47;;;;;;;17.11;78.64;101222.75;5015213;28;20269;-64
2021/06/15 05:20:50;;;;;;;21.77;11.57;;;;;;;17.13;78.28;101228.88;5015104;28;20189;-66
2021/06/15 05:23:20;;;;;;;19.90;11.67;;;;;;;17.08;78.81;101239.13;5015423;28;20204;-64
2021/06/15 05:25:49;;;;;;;21.80;11.60;;;;;;;17.05;78.20;101236.66;4998005;28;20180;-63
2021/06/15 05:28:15;;;;;;;22.43;12.13;;;;;;;16.91;79.19;101239.50;4998203;28;20184;-63
2021/06/15 05:30:41;;;;;;;29.07;11.80;;;;;;;16.92;78.87;101243.94;4981835;28;20228;-64
2021/06/15 05:33:06;;;;;;;23.03;12.37;;;;;;;16.71;79.93;101240.06;5015313;28;20676;-64
2021/06/15 05:35:31;;;;;;;22.13;11.23;;;;;;;16.68;79.61;101243.00;4998165;28;20183;-63
2021/06/15 05:37:57;;;;;;;24.67;10.90;;;;;;;16.77;79.33;101236.97;4997996;28;20173;-64
2021/06/15 05:40:22;;;;;;;13.87;10.40;;;;;;;16.76;79.19;101238.81;5015992;28;20196;-63
2021/06/15 05:42:48;;;;;;;19.17;10.90;;;;;;;16.82;79.21;101238.34;4998374;28;20165;-63
2021/06/15 05:45:15;;;;;;;20.27;11.50;;;;;;;17.05;77.97;101239.34;4998086;28;20187;-63
2021/06/15 05:47:41;;;;;;;24.53;11.67;;;;;;;16.92;78.61;101230.44;4999266;28;20550;-67
2021/06/15 05:50:07;;;;;;;16.93;10.37;;;;;;;17.07;77.11;101226.59;4982055;28;20196;-67
2021/06/15 05:52:33;;;;;;;18.33;11.03;;;;;;;17.10;76.79;101234.50;5015929;28;20292;-67
2021/06/15 05:54:59;;;;;;;24.53;11.00;;;;;;;17.03;77.21;101246.69;5015815;28;20284;-67
2021/06/15 05:57:26;;;;;;;20.03;10.87;;;;;;;17.09;78.00;101248.94;4998607;28;20185;-67
2021/06/15 05:59:51;;;;;;;16.33;10.17;;;;;;;17.25;77.64;101239.72;5015950;28;20330;-68
2021/06/15 06:02:16;;;;;;;19.40;10.33;;;;;;;17.48;75.69;101247.84;5016239;28;20177;-67
2021/06/15 06:09:56;;;;;;;14.77;9.43;;;;;;;17.24;75.85;101264.97;5001351;28;20206;-67
2021/06/15 06:12:22;;;;;;;21.13;10.17;;;;;;;17.25;76.15;101267.56;5016621;28;20205;-68
2021/06/15 06:14:47;;;;;;;15.37;9.73;;;;;;;17.24;76.58;101271.22;4998708;28;20183;-68
2021/06/15 06:17:12;;;;;;;17.80;10.03;;;;;;;17.35;75.65;101278.53;5016622;28;20177;-68
2021/06/15 06:19:38;;;;;;;14.60;8.70;;;;;;;17.32;75.07;101278.75;5015728;28;20203;-67
2021/06/15 06:22:04;;;;;;;16.67;8.90;;;;;;;17.05;76.39;101276.25;4981462;28;20184;-68
2021/06/15 06:24:29;;;;;;;14.27;8.40;;;;;;;17.16;76.02;101285.28;4998483;28;20668;-67
2021/06/15 06:26:54;;;;;;;11.87;7.70;;;;;;;17.14;75.16;101292.63;5016083;28;20177;-67
2021/06/15 06:29:21;;;;;;;17.87;8.03;;;;;;;17.16;75.40;101288.00;4999926;28;20201;-66
2021/06/15 06:31:47;;;;;;;16.43;8.00;;;;;;;17.02;75.91;101290.81;5001919;28;20645;-68
2021/06/15 06:34:12;;;;;;;11.13;7.73;;;;;;;17.05;76.09;101293.28;5018758;28;20200;-67
2021/06/15 06:36:38;;;;;;;15.80;7.77;;;;;;;17.02;75.40;101298.91;4998921;28;20176;-67
2021/06/15 06:39:05;;;;;;;16.07;6.77;;;;;;;16.84;76.34;101294.84;5015671;28;20184;-67
2021/06/15 06:41:30;;;;;;;14.57;6.60;;;;;;;16.71;76.61;101310.16;4997149;28;20185;-67
2021/06/15 06:43:55;;;;;;;13.77;7.17;;;;;;;16.72;76.71;101303.78;4997477;28;20180;-66
2021/06/15 06:46:21;;;;;;;12.50;6.63;;;;;;;16.79;76.57;101310.50;5015300;28;20185;-68
2021/06/15 06:48:46;;;;;;;15.63;6.07;;;;;;;16.84;75.74;101314.59;5016297;28;20650;-68
2021/06/15 06:51:12;;;;;;;9.63;4.63;;;;;;;16.80;74.62;101310.38;5015452;28;20213;-69
2021/06/15 06:53:37;;;;;;;12.80;4.63;;;;;;;16.79;74.17;101313.19;5014200;28;20204;-68
2021/06/15 06:56:04;;;;;;;14.20;3.87;;;;;;;16.79;73.04;101308.66;4996303;28;20179;-68
2021/06/15 06:58:29;;;;;;;7.87;3.60;;;;;;;16.62;73.07;101310.78;4996085;28;20268;-67
2021/06/15 07:00:55;;;;;;;7.07;2.87;;;;;;;16.39;72.92;101313.28;5013671;28;20569;-68
2021/06/15 07:03:20;;;;;;;8.50;3.07;;;;;;;16.51;72.90;101303.47;5014373;28;20173;-68
2021/06/15 07:05:45;;;;;;;11.20;3.50;;;;;;;16.47;73.34;101312.72;4996046;28;20234;-66
2021/06/15 07:08:10;;;;;;;9.43;2.90;;;;;;;16.37;73.40;101317.03;5014158;28;20188;-68
2021/06/15 07:10:36;;;;;;;6.50;3.20;;;;;;;16.34;74.01;101323.47;5013759;28;20208;-67
2021/06/15 07:13:02;;;;;;;7.30;3.20;;;;;;;16.32;73.86;101330.81;5013478;28;20220;-68
2021/06/15 07:15:28;;;;;;;10.43;3.93;;;;;;;16.25;74.57;101329.50;5013962;28;20184;-67
2021/06/15 07:17:54;;;;;;;11.10;3.17;;;;;;;16.21;74.24;101333.38;4996678;28;20191;-67
2021/06/15 07:20:19;;;;;;;10.50;2.97;;;;;;;16.11;74.28;101329.59;5013572;28;20638;-67
2021/06/15 07:22:45;;;;;;;7.23;3.30;;;;;;;16.15;74.32;101333.81;5013613;28;20176;-67
2021/06/15 07:25:11;;;;;;;9.13;2.90;;;;;;;16.14;74.55;101332.94;4996084;28;20231;-67
2021/06/15 07:27:36;;;;;;;7.63;3.10;;;;;;;16.26;74.02;101333.91;4995782;28;20188;-68
2021/06/15 07:30:03;;;;;;;5.70;2.57;;;;;;;16.42;72.27;101339.13;5013498;28;20204;-68
2021/06/15 07:32:28;;;;;;;5.90;2.10;;;;;;;16.35;70.88;101335.97;5013508;28;20235;-68
2021/06/15 07:34:55;;;;;;;6.53;1.80;;;;;;;16.34;69.42;101333.38;5013653;28;20172;-68
2021/06/15 07:37:20;;;;;;;6.37;2.00;;;;;;;16.43;68.08;101335.47;5014056;28;20594;-69
2021/06/15 07:39:46;;;;;;;4.80;1.77;;;;;;;16.48;67.53;101331.47;5014370;28;20232;-68
2021/06/15 07:42:11;;;;;;;7.77;2.10;;;;;;;16.58;67.67;101335.25;5014192;28;20611;-68
2021/06/15 07:44:36;;;;;;;9.33;2.07;;;;;;;16.79;66.88;101329.38;5014327;28;20184;-69
2021/06/15 07:47:01;;;;;;;4.33;1.60;;;;;;;17.15;65.76;101331.25;5014301;28;20181;-68
2021/06/15 07:49:28;;;;;;;3.70;1.50;;;;;;;17.30;64.88;101330.13;4995922;28;20196;-67
2021/06/15 07:51:53;;;;;;;3.77;1.33;;;;;;;17.48;64.64;101328.78;4997310;28;20193;-68
2021/06/15 07:54:19;;;;;;;4.60;2.10;;;;;;;17.47;64.44;101339.69;5014654;28;20661;-67
2021/06/15 07:56:44;;;;;;;7.80;1.90;;;;;;;17.22;65.33;101339.75;5014371;28;20511;-67
2021/06/15 07:59:10;;;;;;;3.17;1.67;;;;;;;17.61;64.64;101349.47;5013996;28;20223;-68
2021/06/15 08:01:35;;;;;;;6.17;2.10;;;;;;;17.94;62.97;101352.38;5015078;28;20260;-68
2021/06/15 08:04:00;;;;;;;4.17;1.70;;;;;;;17.89;62.16;101338.38;5013830;28;20169;-67
2021/06/15 08:06:26;;;;;;;7.37;1.80;;;;;;;18.01;61.83;101342.81;4996011;28;20176;-69
2021/06/15 08:08:51;;;;;;;2.83;1.33;;;;;;;17.87;61.09;101337.63;5013382;28;20719;-67
2021/06/15 08:11:17;;;;;;;6.70;1.90;;;;;;;17.76;60.71;101334.84;5013166;28;20231;-67
2021/06/15 08:13:42;;;;;;;3.37;1.50;;;;;;;18.24;59.76;101341.06;5013629;28;20225;-67
2021/06/15 08:16:08;;;;;;;3.40;1.53;;;;;;;18.58;58.83;101346.53;4996408;28;20568;-67
2021/06/15 08:18:33;;;;;;;4.50;1.47;;;;;;;18.98;57.97;101344.31;5013771;28;20219;-67
2021/06/15 08:20:59;;;;;;;4.53;1.37;;;;;;;19.12;56.09;101352.16;5013223;28;20213;-68
2021/06/15 08:23:25;;;;;;;4.70;1.63;;;;;;;18.92;56.92;101356.44;5013002;28;20653;-69
2021/06/15 08:25:51;;;;;;;4.30;1.40;;;;;;;18.54;56.92;101348.63;5013508;28;20256;-68
2021/06/15 08:28:17;;;;;;;3.23;1.20;;;;;;;19.11;54.50;101346.88;5012793;28;20211;-68
2021/06/15 08:30:43;;;;;;;3.47;1.13;;;;;;;18.99;54.88;101357.72;5012886;28;20193;-68
2021/06/15 08:33:08;;;;;;;3.87;1.40;;;;;;;18.92;54.95;101361.00;4995334;28;20212;-67
2021/06/15 08:35:34;;;;;;;3.10;1.57;;;;;;;19.19;54.31;101366.03;4995173;28;20179;-68
2021/06/15 08:37:59;;;;;;;5.47;1.27;;;;;;;18.96;54.27;101363.38;5012804;28;20169;-67
2021/06/15 08:40:25;;;;;;;4.70;1.30;;;;;;;18.36;55.88;101364.44;4995237;28;20320;-68
2021/06/15 08:42:50;;;;;;;3.67;1.00;;;;;;;18.73;55.39;101364.31;5012633;28;20314;-68
2021/06/15 08:45:16;;;;;;;4.03;1.10;;;;;;;18.58;56.89;101358.22;4997489;28;20177;-68
2021/06/15 08:47:44;;;;;;;3.63;1.40;;;;;;;18.78;55.23;101372.91;5016053;28;20707;-68
2021/06/15 08:50:13;;;;;;;3.03;1.10;;;;;;;19.07;54.44;101375.16;4998879;28;20192;-67
2021/06/15 08:52:39;;;;;;;3.80;1.33;;;;;;;18.57;56.52;101375.41;4998954;28;20217;-68
2021/06/15 08:55:05;;;;;;;7.10;2.07;;;;;;;18.33;57.18;101370.09;4998695;28;20648;-68
2021/06/15 08:57:35;;;;;;;6.23;1.77;;;;;;;18.29;57.55;101374.00;5016428;28;20649;-67
2021/06/15 09:00:02;;;;;;;4.90;1.50;;;;;;;18.84;56.53;101369.72;5016274;28;20197;-68
2021/06/15 09:02:28;;;;;;;5.07;1.23;;;;;;;18.89;55.58;101386.44;4999176;28;20633;-68
2021/06/15 09:04:53;;;;;;;4.90;1.67;;;;;;;18.78;55.44;101383.72;4998817;28;20176;-68
2021/06/15 09:07:19;;;;;;;6.63;1.73;;;;;;;19.20;55.27;101384.00;4998657;28;20581;-68
2021/06/15 09:09:46;;;;;;;4.20;1.33;;;;;;;19.10;56.12;101397.41;4998447;28;20204;-68
2021/06/15 09:12:13;;;;;;;6.17;1.60;;;;;;;19.68;53.62;101396.28;4998111;28;20307;-67
2021/06/15 09:14:50;;;;;;;5.83;1.30;;;;;;;19.27;54.15;101387.94;4998476;28;20661;-68
2021/06/15 09:17:33;;;;;;;5.50;1.30;;;;;;;19.50;53.92;101373.41;5015676;28;20180;-68
2021/06/15 09:20:17;;;;;;;2.93;1.20;;;;;;;19.67;53.47;101370.19;4998493;28;20193;-68
2021/06/15 09:22:42;;;;;;;4.43;1.70;;;;;;;19.85;51.78;101377.78;4998242;28;20252;-68
2021/06/15 09:25:13;;;;;;;3.43;1.10;;;;;;;19.74;52.84;101369.72;4998013;28;20173;-68
2021/06/15 09:27:39;;;;;;;4.03;1.87;;;;;;;20.53;49.81;101369.28;4981770;28;20533;-68
2021/06/15 09:30:12;;;;;;;4.67;1.30;;;;;;;20.48;48.41;101379.66;4997956;28;20195;-68
2021/06/15 09:32:41;;;;;;;4.93;1.40;;;;;;;20.51;48.48;101381.25;5015175;28;20648;-68
2021/06/15 09:35:09;;;;;;;4.00;1.27;;;;;;;20.02;49.61;101389.91;4981668;28;20246;-68
2021/06/15 09:37:42;;;;;;;3.43;1.13;;;;;;;20.59;49.36;101393.16;4981894;28;20549;-68
2021/06/15 09:40:10;;;;;;;3.33;1.23;;;;;;;20.25;49.13;101389.72;4981550;28;20189;-68
2021/06/15 09:42:59;;;;;;;4.33;1.27;;;;;;;20.78;48.32;101388.81;4997741;28;20671;-68
2021/06/15 09:45:30;;;;;;;4.40;1.33;;;;;;;21.65;46.56;101387.41;5015133;28;20165;-68
2021/06/15 09:48:24;;;;;;;6.27;2.20;;;;;;;22.28;44.74;101387.03;5014940;28;20173;-67
2021/06/15 09:51:01;;;;;;;3.57;1.43;;;;;;;21.38;46.52;101376.31;4997962;28;20193;-69
2021/06/15 09:53:32;;;;;;;3.87;1.30;;;;;;;21.12;46.62;101389.44;4997241;28;20247;-69
2021/06/15 09:56:03;;;;;;;4.70;1.13;;;;;;;21.02;46.95;101385.81;4997088;28;20235;-68
2021/06/15 09:58:48;;;;;;;3.33;1.20;;;;;;;21.42;46.11;101388.59;4998162;28;20153;-69
2021/06/15 10:01:37;;;;;;;1.20;0.80;;;;;;;21.89;44.50;101380.69;5014774;28;20619;-68
2021/06/15 10:04:20;;;;;;;4.27;1.60;;;;;;;21.01;44.91;101373.25;5015096;28;20166;-69
2021/06/15 10:06:47;;;;;;;3.63;1.43;;;;;;;21.45;44.04;101381.03;4997455;28;20215;-68
2021/06/15 10:09:13;;;;;;;4.53;1.40;;;;;;;21.20;45.46;101378.78;4997389;28;20192;-68
2021/06/15 10:11:39;;;;;;;2.47;1.03;;;;;;;21.56;45.19;101382.81;4997235;28;20560;-69
2021/06/15 10:14:05;;;;;;;2.47;1.10;;;;;;;21.77;45.04;101388.13;4997259;28;20712;-69
2021/06/15 10:16:31;;;;;;;4.80;1.20;;;;;;;22.12;43.08;101385.78;5014737;28;20208;-68
2021/06/15 10:19:00;;;;;;;2.30;0.90;;;;;;;21.96;42.89;101390.03;4997142;28;20256;-69
2021/06/15 10:21:26;;;;;;;5.10;1.27;;;;;;;21.62;43.76;101389.53;5014751;28;20169;-69
2021/06/15 10:23:52;;;;;;;4.47;1.00;;;;;;;22.13;43.02;101382.03;5014436;28;20177;-69
2021/06/15 10:26:17;;;;;;;4.60;1.13;;;;;;;20.85;45.89;101390.91;5014370;28;20235;-69
2021/06/15 10:28:43;;;;;;;4.13;1.10;;;;;;;20.79;46.51;101385.97;5014373;28;20545;-68
2021/06/15 10:31:08;;;;;;;3.40;1.00;;;;;;;21.06;45.61;101390.84;4996710;28;20250;-69
2021/06/15 10:33:43;;;;;;;2.83;1.03;;;;;;;21.45;45.75;101386.47;5014579;28;20201;-68
2021/06/15 10:36:09;;;;;;;1.67;0.87;;;;;;;22.10;44.05;101389.63;4996962;28;20188;-69
2021/06/15 10:38:35;;;;;;;2.73;1.10;;;;;;;22.18;42.51;101380.75;4981088;28;20176;-68
2021/06/15 10:41:03;;;;;;;3.00;1.00;;;;;;;22.44;42.61;101381.91;4996432;28;20196;-68
2021/06/15 10:43:30;;;;;;;3.07;1.20;;;;;;;22.18;42.79;101386.19;5014378;28;20167;-68
2021/06/15 10:46:04;;;;;;;3.30;1.40;;;;;;;22.28;43.40;101384.31;4996400;28;20173;-67
2021/06/15 10:48:34;;;;;;;4.57;0.90;;;;;;;22.57;41.62;101392.47;5014103;28;20169;-68
2021/06/15 10:51:01;;;;;;;5.37;1.10;;;;;;;22.22;41.58;101385.75;5014106;28;20200;-68
2021/06/15 10:53:35;;;;;;;2.07;0.77;;;;;;;21.68;41.75;101388.97;4997318;28;20210;-67
2021/06/15 10:56:02;;;;;;;3.03;1.00;;;;;;;21.96;41.17;101382.72;5015862;28;20183;-68
2021/06/15 10:58:38;;;;;;;3.40;0.90;;;;;;;22.35;39.89;101385.50;4996600;28;20569;-69
2021/06/15 11:01:13;;;;;;;3.77;1.40;;;;;;;21.52;40.70;101384.91;4996383;28;20224;-69
2021/06/15 11:03:50;;;;;;;3.87;1.40;;;;;;;23.41;36.09;101382.50;5014342;28;20226;-68
2021/06/15 11:06:16;;;;;;;1.93;0.80;;;;;;;25.19;32.65;101383.34;5014569;28;20176;-68
2021/06/15 11:08:42;;;;;;;3.80;1.20;;;;;;;26.55;30.14;101381.34;4996050;28;20629;-68
2021/06/15 11:11:16;;;;;;;1.67;0.80;;;;;;;28.30;29.39;101381.03;5013911;28;20205;-69
2021/06/15 11:13:42;;;;;;;1.83;0.70;;;;;;;29.77;26.92;101390.50;5014172;28;20202;-69
2021/06/15 11:16:25;;;;;;;1.73;0.68;;;;;;;30.07;25.51;101378.38;5014124;28;20196;-68
2021/06/15 11:19:09;;;;;;;2.33;1.10;;;;;;;30.05;24.94;101382.38;4996408;28;20184;-68
2021/06/15 11:21:51;;;;;;;4.20;1.05;;;;;;;29.16;26.66;101376.97;5013950;28;20176;-68
2021/06/15 11:24:20;;;;;;;4.75;0.93;;;;;;;29.10;26.38;101379.63;5013900;28;20173;-68
2021/06/15 11:26:47;;;;;;;2.33;0.68;;;;;;;29.16;26.13;101378.88;4996400;28;20173;-68
2021/06/15 11:29:46;;;;;;;2.72;1.02;;;;;;;29.86;25.17;101372.81;5013633;28;20660;-66